createdAt,value
2022-12-26T00:01:23.354Z,2.73
2022-12-26T00:03:51.054Z,3.43
2022-12-26T00:06:21.185Z,3.73
2022-12-26T00:08:48.974Z,2.87
2022-12-26T00:11:20.640Z,2.30
2022-12-26T00:13:48.336Z,3.70
2022-12-26T00:16:18.416Z,3.23
2022-12-26T00:23:25.999Z,2.93
2022-12-26T00:25:53.165Z,2.57
2022-12-26T00:28:20.639Z,2.43
2022-12-26T00:30:51.586Z,2.50
2022-12-26T00:33:18.877Z,2.80
2022-12-26T00:35:46.222Z,2.87
2022-12-26T00:38:14.204Z,2.30
2022-12-26T00:45:07.749Z,2.50
2022-12-26T00:47:35.316Z,3.20
2022-12-26T00:50:13.363Z,2.60
2022-12-26T00:52:42.679Z,2.93
2022-12-26T00:55:09.910Z,2.37
2022-12-26T00:57:36.874Z,3.03
2022-12-26T01:00:10.536Z,3.23
2022-12-26T01:08:22.303Z,3.70
2022-12-26T01:10:30.972Z,3.00
2022-12-26T01:13:00.059Z,2.80
2022-12-26T01:15:55.836Z,2.70
2022-12-26T01:18:25.830Z,2.83
2022-12-26T01:21:07.227Z,2.57
2022-12-26T01:23:38.300Z,2.70
2022-12-26T01:26:17.735Z,3.27
2022-12-26T01:33:53.885Z,3.30
2022-12-26T01:36:20.965Z,2.73
2022-12-26T01:38:48.245Z,3.23
2022-12-26T01:41:30.206Z,2.87
2022-12-26T01:44:00.014Z,2.90
2022-12-26T01:46:32.329Z,2.97
2022-12-26T01:49:06.979Z,3.00
2022-12-26T01:54:40.390Z,3.13
2022-12-26T01:57:12.535Z,2.30
2022-12-26T01:59:41.395Z,2.93
2022-12-26T02:02:09.916Z,2.77
2022-12-26T02:04:59.663Z,3.17
2022-12-26T02:07:28.415Z,2.67
2022-12-26T02:10:04.015Z,3.40
2022-12-26T02:12:38.881Z,2.87
2022-12-26T02:19:23.975Z,2.30
2022-12-26T02:22:13.228Z,2.60
2022-12-26T02:25:08.517Z,2.50
2022-12-26T02:28:06.112Z,3.93
2022-12-26T02:30:45.527Z,3.60
2022-12-26T02:33:30.935Z,2.87
2022-12-26T02:40:20.307Z,2.50
2022-12-26T02:43:00.665Z,2.60
2022-12-26T02:45:52.528Z,2.37
2022-12-26T02:48:32.709Z,3.00
2022-12-26T02:51:29.391Z,3.10
2022-12-26T02:54:26.733Z,3.33
2022-12-26T02:57:17.877Z,2.57
2022-12-26T03:05:31.637Z,2.43
2022-12-26T03:08:19.238Z,2.50
2022-12-26T03:11:04.338Z,2.20
2022-12-26T03:13:36.291Z,3.10
2022-12-26T03:16:25.496Z,2.73
2022-12-26T03:18:59.166Z,3.03
2022-12-26T03:24:23.220Z,2.40
2022-12-26T03:26:53.517Z,2.43
2022-12-26T03:29:41.712Z,2.37
2022-12-26T03:32:13.296Z,2.43
2022-12-26T03:34:42.690Z,2.23
2022-12-26T03:37:48.775Z,3.10
2022-12-26T03:41:15.914Z,3.00
2022-12-26T03:49:27.459Z,2.63
2022-12-26T03:52:20.711Z,2.60
2022-12-26T03:55:12.657Z,2.60
2022-12-26T03:58:08.035Z,2.20
2022-12-26T04:00:54.710Z,1.97
2022-12-26T04:03:45.694Z,2.13
2022-12-26T04:09:32.970Z,3.60
2022-12-26T04:12:24.261Z,2.80
2022-12-26T04:15:13.041Z,2.50
2022-12-26T04:18:04.170Z,3.20
2022-12-26T04:20:37.620Z,2.53
2022-12-26T04:23:27.328Z,2.40
2022-12-26T04:31:18.968Z,2.77
2022-12-26T04:34:10.171Z,2.57
2022-12-26T04:37:01.872Z,2.57
2022-12-26T04:39:52.292Z,2.40
2022-12-26T04:42:39.128Z,2.90
2022-12-26T04:45:08.743Z,3.87
2022-12-26T04:52:19.898Z,2.17
2022-12-26T04:54:46.869Z,2.10
2022-12-26T04:57:14.293Z,3.23
2022-12-26T04:59:43.847Z,2.90
2022-12-26T05:02:28.865Z,2.30
2022-12-26T05:05:14.426Z,2.10
2022-12-26T05:13:22.693Z,2.70
2022-12-26T05:16:07.706Z,2.50
2022-12-26T05:18:52.750Z,2.33
2022-12-26T05:21:37.896Z,2.20
2022-12-26T05:24:23.359Z,2.57
2022-12-26T05:27:04.820Z,2.47
2022-12-26T05:34:39.768Z,2.43
2022-12-26T05:37:06.719Z,2.60
2022-12-26T05:39:33.579Z,2.93
2022-12-26T05:42:00.572Z,2.70
2022-12-26T05:44:28.247Z,3.07
2022-12-26T05:46:55.504Z,2.70
2022-12-26T05:49:24.511Z,2.70
2022-12-26T05:56:23.737Z,2.30
2022-12-26T05:59:01.034Z,2.80
2022-12-26T06:01:32.532Z,2.20
2022-12-26T06:04:00.874Z,2.20
2022-12-26T06:06:31.337Z,2.20
2022-12-26T06:09:05.827Z,2.37
2022-12-26T06:11:43.794Z,2.03
2022-12-26T06:14:17.149Z,2.10
2022-12-26T06:16:44.531Z,2.03
2022-12-26T06:19:20.472Z,1.90
2022-12-26T06:26:57.277Z,2.13
2022-12-26T06:29:24.901Z,2.27
2022-12-26T06:31:53.711Z,2.07
2022-12-26T06:34:34.293Z,2.43
2022-12-26T06:37:01.691Z,2.13
2022-12-26T06:39:29.199Z,2.03
2022-12-26T06:41:59.701Z,2.20
2022-12-26T06:44:28.512Z,1.57
2022-12-26T06:52:00.892Z,2.10
2022-12-26T06:54:27.892Z,1.80
2022-12-26T06:56:55.040Z,1.73
2022-12-26T06:59:22.268Z,1.90
2022-12-26T07:01:52.472Z,2.00
2022-12-26T07:04:20.014Z,2.33
2022-12-26T07:06:47.549Z,1.80
2022-12-26T07:13:47.874Z,2.40
2022-12-26T07:16:15.644Z,2.47
2022-12-26T07:18:42.627Z,2.33
2022-12-26T07:21:11.648Z,2.40
2022-12-26T07:23:38.768Z,2.50
2022-12-26T07:26:06.477Z,2.73
2022-12-26T07:28:34.171Z,2.37
2022-12-26T07:35:46.520Z,2.37
2022-12-26T07:38:13.648Z,2.40
2022-12-26T07:40:41.143Z,2.40
2022-12-26T07:43:08.523Z,2.00
2022-12-26T07:45:39.189Z,2.37
2022-12-26T07:48:10.432Z,2.23
2022-12-26T07:50:37.248Z,1.83
2022-12-26T08:00:07.590Z,1.20
2022-12-26T08:02:43.306Z,1.53
2022-12-26T08:05:10.739Z,1.40
2022-12-26T08:07:38.979Z,1.40
2022-12-26T08:10:06.837Z,1.57
2022-12-26T08:15:23.269Z,2.60
2022-12-26T08:17:50.698Z,0.80
2022-12-26T08:20:18.752Z,0.70
2022-12-26T08:22:46.302Z,1.00
2022-12-26T08:25:15.541Z,0.93
2022-12-26T08:27:49.391Z,0.60
2022-12-26T08:30:17.017Z,0.60
2022-12-26T08:32:46.911Z,0.60
2022-12-26T08:43:21.326Z,0.60
2022-12-26T08:45:46.304Z,0.40
2022-12-26T08:48:15.522Z,0.60
2022-12-26T08:50:43.348Z,0.60
2022-12-26T08:53:13.009Z,0.43
2022-12-26T08:55:42.560Z,0.83
2022-12-26T08:58:29.074Z,1.10
2022-12-26T09:04:48.198Z,0.60
2022-12-26T09:07:15.879Z,0.70
2022-12-26T09:09:53.728Z,1.00
2022-12-26T09:12:46.177Z,1.00
2022-12-26T09:15:13.919Z,0.80
2022-12-26T09:17:41.306Z,1.40
2022-12-26T09:20:12.926Z,1.27
2022-12-26T09:22:52.499Z,1.30
2022-12-26T09:28:31.514Z,1.60
2022-12-26T09:31:01.657Z,1.10
2022-12-26T09:33:39.353Z,1.60
2022-12-26T09:36:14.742Z,1.50
2022-12-26T09:38:59.848Z,1.57
2022-12-26T09:41:52.668Z,1.30
2022-12-26T09:47:34.685Z,1.10
2022-12-26T09:50:13.451Z,1.10
2022-12-26T09:52:49.669Z,1.17
2022-12-26T09:55:38.084Z,1.00
2022-12-26T09:58:16.022Z,1.13
2022-12-26T10:00:51.656Z,1.00
2022-12-26T10:06:18.799Z,1.23
2022-12-26T10:09:19.446Z,1.13
2022-12-26T10:12:02.819Z,1.27
2022-12-26T10:14:45.689Z,1.27
2022-12-26T10:17:27.828Z,1.00
2022-12-26T10:20:30.649Z,1.03
2022-12-26T10:26:01.574Z,0.90
2022-12-26T10:28:38.670Z,0.90
2022-12-26T10:31:27.164Z,0.90
2022-12-26T10:34:10.629Z,0.87
2022-12-26T10:36:41.720Z,1.07
2022-12-26T10:39:23.806Z,1.10
2022-12-26T10:44:47.259Z,0.83
2022-12-26T10:47:27.376Z,0.83
2022-12-26T10:50:03.027Z,0.93
2022-12-26T10:52:36.578Z,1.03
2022-12-26T10:55:29.439Z,0.87
2022-12-26T10:57:57.230Z,0.70
2022-12-26T11:00:33.488Z,1.10
2022-12-26T11:03:13.874Z,1.03
2022-12-26T11:11:06.122Z,0.90
2022-12-26T11:13:46.399Z,0.90
2022-12-26T11:16:25.084Z,0.70
2022-12-26T11:18:55.313Z,0.80
2022-12-26T11:21:28.681Z,0.73
2022-12-26T11:24:17.161Z,0.70
2022-12-26T11:29:42.570Z,0.90
2022-12-26T11:32:22.257Z,0.60
2022-12-26T11:34:52.707Z,0.70
2022-12-26T11:37:27.288Z,0.50
2022-12-26T11:40:01.290Z,0.63
2022-12-26T11:42:28.436Z,0.97
2022-12-26T11:45:01.102Z,1.07
2022-12-26T11:52:39.015Z,0.83
2022-12-26T11:55:29.751Z,0.70
2022-12-26T11:58:05.955Z,0.60
2022-12-26T12:00:37.350Z,0.77
2022-12-26T12:03:11.680Z,0.80
2022-12-26T12:05:54.310Z,0.60
2022-12-26T12:11:29.359Z,0.60
2022-12-26T12:14:07.688Z,0.70
2022-12-26T12:16:44.570Z,0.87
2022-12-26T12:19:23.825Z,0.60
2022-12-26T12:22:24.459Z,0.90
2022-12-26T12:25:26.468Z,0.80
2022-12-26T12:28:03.764Z,0.77
2022-12-26T12:36:05.408Z,0.90
2022-12-26T12:38:37.398Z,0.60
2022-12-26T12:41:32.476Z,0.60
2022-12-26T12:44:08.592Z,1.03
2022-12-26T12:46:56.881Z,1.30
2022-12-26T12:49:51.829Z,1.03
2022-12-26T12:57:31.974Z,0.60
2022-12-26T13:00:14.378Z,0.87
2022-12-26T13:02:52.556Z,0.90
2022-12-26T13:05:33.064Z,0.57
2022-12-26T13:08:10.266Z,0.73
2022-12-26T13:10:45.905Z,0.63
2022-12-26T13:16:28.164Z,0.67
2022-12-26T13:18:59.242Z,0.80
2022-12-26T13:21:31.285Z,0.80
2022-12-26T13:24:24.675Z,0.70
2022-12-26T13:27:06.321Z,0.80
2022-12-26T13:29:40.053Z,0.70
2022-12-26T13:37:55.299Z,0.90
2022-12-26T13:40:29.828Z,0.70
2022-12-26T13:43:20.002Z,0.87
2022-12-26T13:45:56.916Z,0.90
2022-12-26T13:48:57.138Z,0.80
2022-12-26T13:51:51.029Z,0.90
2022-12-26T13:59:05.658Z,0.70
2022-12-26T14:01:43.740Z,0.70
2022-12-26T14:04:29.559Z,0.60
2022-12-26T14:07:15.177Z,0.50
2022-12-26T14:10:05.233Z,0.30
2022-12-26T14:12:50.098Z,0.47
2022-12-26T14:20:46.070Z,0.70
2022-12-26T14:23:32.919Z,0.60
2022-12-26T14:26:06.409Z,0.40
2022-12-26T14:28:50.940Z,0.87
2022-12-26T14:31:25.932Z,0.50
2022-12-26T14:34:05.515Z,0.60
2022-12-26T14:39:46.697Z,0.40
2022-12-26T14:42:42.387Z,0.50
2022-12-26T14:45:30.729Z,1.10
2022-12-26T14:48:02.682Z,0.47
2022-12-26T14:50:46.542Z,0.40
2022-12-26T14:53:31.578Z,0.97
2022-12-26T15:02:12.674Z,0.40
2022-12-26T15:05:17.356Z,0.63
2022-12-26T15:08:28.817Z,0.30
2022-12-26T15:11:43.388Z,0.60
2022-12-26T15:14:59.689Z,0.40
2022-12-26T15:17:47.246Z,0.50
2022-12-26T15:26:01.520Z,0.70
2022-12-26T15:29:01.675Z,0.53
2022-12-26T15:31:56.750Z,0.63
2022-12-26T15:34:54.880Z,0.50
2022-12-26T15:38:11.294Z,0.60
2022-12-26T15:40:53.619Z,0.63
2022-12-26T15:48:02.380Z,0.57
2022-12-26T15:50:43.490Z,0.63
2022-12-26T15:53:22.188Z,0.53
2022-12-26T15:56:10.497Z,0.70
2022-12-26T15:59:31.417Z,0.50
2022-12-26T16:02:03.857Z,1.03
2022-12-26T16:04:43.018Z,1.37
2022-12-26T16:15:25.962Z,0.80
2022-12-26T16:17:54.041Z,0.80
2022-12-26T16:20:50.735Z,0.90
2022-12-26T16:23:28.211Z,0.70
2022-12-26T16:26:13.959Z,0.80
2022-12-26T16:31:49.379Z,0.20
2022-12-26T16:39:27.690Z,0.30
2022-12-26T16:42:58.122Z,0.53
2022-12-26T16:45:35.061Z,1.80
2022-12-26T16:48:15.466Z,0.30
2022-12-26T16:50:55.916Z,0.30
2022-12-26T16:53:46.330Z,0.20
2022-12-26T16:56:43.580Z,0.20
2022-12-26T16:59:44.699Z,0.40
2022-12-26T17:02:26.871Z,0.40
2022-12-26T17:10:31.149Z,0.47
2022-12-26T17:13:05.406Z,0.50
2022-12-26T17:15:40.015Z,0.47
2022-12-26T17:18:43.389Z,0.27
2022-12-26T17:21:32.834Z,0.40
2022-12-26T17:24:31.022Z,0.50
2022-12-26T17:30:05.220Z,0.50
2022-12-26T17:32:38.813Z,0.53
2022-12-26T17:35:21.609Z,0.60
2022-12-26T17:37:57.239Z,0.70
2022-12-26T17:40:31.700Z,0.90
2022-12-26T17:43:23.297Z,0.83
2022-12-26T17:52:11.204Z,0.80
2022-12-26T17:55:12.913Z,1.23
2022-12-26T17:57:50.053Z,1.13
2022-12-26T18:00:26.031Z,1.23
2022-12-26T18:02:57.436Z,1.47
2022-12-26T18:08:41.401Z,1.40
2022-12-26T18:11:14.649Z,1.47
2022-12-26T18:13:47.888Z,1.33
2022-12-26T18:32:00.383Z,2.53
2022-12-26T18:34:46.510Z,2.50
2022-12-26T18:37:16.599Z,2.83
2022-12-26T18:39:52.051Z,3.40
2022-12-26T18:42:40.377Z,2.73
2022-12-26T18:45:23.139Z,2.37
2022-12-26T18:48:10.160Z,2.77
2022-12-26T18:58:37.816Z,1.23
2022-12-26T19:01:07.641Z,1.70
2022-12-26T19:03:36.685Z,1.90
2022-12-26T19:06:05.587Z,2.23
2022-12-26T19:08:36.746Z,1.57
2022-12-26T19:11:06.275Z,1.50
2022-12-26T19:13:36.660Z,1.40
2022-12-26T19:16:05.780Z,2.53
2022-12-26T19:23:37.307Z,1.70
2022-12-26T19:26:11.718Z,2.53
2022-12-26T19:28:43.521Z,2.53
2022-12-26T19:31:17.068Z,2.20
2022-12-26T19:33:44.940Z,2.20
2022-12-26T19:36:18.318Z,2.37
2022-12-26T19:38:53.446Z,1.70
2022-12-26T19:46:30.732Z,1.73
2022-12-26T19:49:01.512Z,1.40
2022-12-26T19:51:35.728Z,1.67
2022-12-26T19:54:07.498Z,1.30
2022-12-26T19:56:42.252Z,2.53
2022-12-26T19:59:11.677Z,1.70
2022-12-26T20:01:52.453Z,1.93
2022-12-26T20:04:20.877Z,1.20
2022-12-26T20:13:45.576Z,2.00
2022-12-26T20:17:09.780Z,1.47
2022-12-26T20:20:30.746Z,2.07
2022-12-26T20:33:38.042Z,1.63
2022-12-26T20:36:38.254Z,1.50
2022-12-26T20:39:35.486Z,1.80
2022-12-26T20:42:35.556Z,2.37
2022-12-26T20:50:28.301Z,3.37
2022-12-26T20:53:27.550Z,3.07
2022-12-26T20:56:34.157Z,4.60
2022-12-26T20:59:08.569Z,3.47
2022-12-26T21:01:42.225Z,3.90
2022-12-26T21:04:23.140Z,3.20
2022-12-26T21:09:59.232Z,4.13
2022-12-26T21:20:53.190Z,4.77
2022-12-26T21:23:23.862Z,4.83
2022-12-26T21:25:52.008Z,5.33
2022-12-26T21:28:21.761Z,4.73
2022-12-26T21:30:50.339Z,5.90
2022-12-26T21:33:23.319Z,4.87
2022-12-26T21:35:54.462Z,4.70
2022-12-26T21:38:25.899Z,4.57
2022-12-26T21:48:55.015Z,4.60
2022-12-26T21:51:40.727Z,4.67
2022-12-26T21:54:41.047Z,4.70
2022-12-26T21:57:24.691Z,4.07
2022-12-26T22:00:08.057Z,4.63
2022-12-26T22:05:42.296Z,5.20
2022-12-26T22:08:11.652Z,5.23
2022-12-26T22:14:00.317Z,4.20
2022-12-26T22:16:35.735Z,3.67
2022-12-26T22:19:18.972Z,5.03
2022-12-26T22:22:13.350Z,3.10
2022-12-26T22:24:52.558Z,2.50
2022-12-26T22:27:20.059Z,3.67
2022-12-26T22:29:49.361Z,2.57
2022-12-26T22:38:01.389Z,3.20
2022-12-26T22:41:02.237Z,2.90
2022-12-26T22:43:33.277Z,2.40
2022-12-26T22:46:04.858Z,2.57
2022-12-26T22:48:37.069Z,2.30
2022-12-26T22:51:14.165Z,3.27
2022-12-26T22:54:01.736Z,2.23
2022-12-26T22:56:33.342Z,2.80
2022-12-26T22:59:03.994Z,1.77
2022-12-26T23:06:04.367Z,2.60
2022-12-26T23:08:46.576Z,3.00
2022-12-26T23:11:32.145Z,2.53
2022-12-26T23:14:05.923Z,3.33
2022-12-26T23:16:53.255Z,2.47
2022-12-26T23:19:44.130Z,3.13
2022-12-26T23:22:34.954Z,2.83
2022-12-26T23:25:05.188Z,2.73
2022-12-26T23:31:29.645Z,2.60
2022-12-26T23:34:00.370Z,4.20
2022-12-26T23:36:31.938Z,2.57
2022-12-26T23:39:00.488Z,2.43
2022-12-26T23:41:27.938Z,3.03
2022-12-26T23:43:55.387Z,3.03
2022-12-26T23:46:22.967Z,3.10
2022-12-26T23:53:12.096Z,2.37
2022-12-26T23:55:43.248Z,2.13
2022-12-26T23:58:14.939Z,2.10
